Flight Information

DEPARTURE
BURBANK, CA
Elevation:
778
Runways:
15/33 - 6886x150 - ASPH-CONC-E
8/26 - 5802x150 - ASPH-CONC-E
ATIS:
135.125 818-843-6633
Clearance Delivery:
118
Ground:
123.9
Tower:
BURBANK TOWER 118.7 132.325 (Helicopters)
DESTINATION
LAS VEGAS, NV
Elevation:
2181
TPA:
3181 (est.)
Runways:
1L/19R - 8988x150 - CONC-G
1R/19L - 9771x150 - CONC-G
8L/26R - 14515x150 - CONC-G
8R/26L - 10526x150 - CONC-E
ATIS:
132.4 702-736-0950
Tower:
LAS VEGAS TOWER 119.9
Ground:
121.9 (West of Rwy 01R-19L) 121.1 (East of Rwy 01R-19L)


193.5 NM53° True-14° Var39° HDG

Flight Plan:
(click to file on line)

1. Type
2. Aircraft Identification
3. Aircraft Type / Special Equipment
4. True Airspeed
kts
5. Departure Airport
(ICAO code)
6. Arriving Airport
(ICAO code)
7. Cruising Altitude
ft
8. Alternate Airport
(ICAO code)
9. Route of Flight
10. Remarks


00:00:00 Departure ATIS: Destination ATIS:

Clearance Limit:
Route:
Altitude: Expect in minutes
Frequency:
Transponder: (7500 Hijack / 7600 Lost Comms / 7700 Emergency)


KBUR 020853Z 00000KT 5SM HZ CLR 13/09 A3008 RMK AO2 SLP176 T01280089 50002 $
Time: 2021-12-02T08:53:00Z
1638437488
Winds: calm
Visibility: 5.0 sm
Clouds (AGL): CLR
Temperature: 12.8 C
Dew Point: 8.9 C
Pressure: 30.079725 in Hgbr

KLAS 020856Z 21006KT 10SM FEW250 12/M08 A3017 RMK AO2 SLP204 T01171083 58001
Time: 2021-12-02T08:56:00Z
1638437489
Winds: 210 @ 6 kts
Visibility: 10.0 sm
Clouds (AGL): FEW 25000
Temperature: 11.7 C
Dew Point: -8.3 C
Pressure: 30.171259 in Hgbr


Notes:

Data extracted from FAA Digital Chart Supplement. Effective: 0901Z Thursday, OCT 7, 2021 to 0901Z Thursday, DEC 2, 2021
Current ATIS data is provided courtisy of PilotEdge.